Benton, Ohio
Current Conditions -  °F | °C
As of 3:53 AM on Saturday 29 Nov 2014 (Local Time) from KMNN Reporting Station
Broken Clouds Broken Clouds  
Wind Chill: 23°   Ceiling: 11000
Heat Index: 32°   Visibility: 10mi
Dew Point: 20°   Wind: 13mph
Humidity: 61%   Direction: 170°S
Pressure: 30.05"   Gusts: NA
Location:  40.948°N, 83.1346°W
Report Text: KMNN 290853Z AUTO 17011KT 10SM BKN110 00/M07 A3005 RMK AO2 SLP187 T00001067 58007 TSNO
Loading
Personal Weather Stations






























Interactive Weather Map New forecast layout! Learn more

10-Day Weather Forecast

Advertisements
Track Severe Weather on mobile